Time;durP1;ratioP1;P1;durP2;ratioP2;P2;SDS_P1;SDS_P2;PMS_P1;PMS_P2;Temp;Humidity;BMP_temperature;BMP_pressure;BME280_temperature;BME280_humidity;BME280_pressure;Samples;Min_cycle;Max_cycle;Signal;HPM_P1;HPM_P2
2021/03/13 00:01:40;;;;;;;9.50;5.65;;;23.20;28.90;;;;;;6223495;28;81571;-68
2021/03/13 00:04:41;;;;;;;11.02;6.18;;;23.20;28.70;;;;;;6246501;28;81598;-68
2021/03/13 00:07:41;;;;;;;10.40;6.07;;;23.20;29.10;;;;;;6243681;28;80633;-70
2021/03/13 00:10:42;;;;;;;13.23;6.47;;;23.20;28.60;;;;;;6236213;28;80518;-69
2021/03/13 00:13:43;;;;;;;10.40;6.18;;;23.20;28.60;;;;;;6242777;28;80764;-68
2021/03/13 00:16:43;;;;;;;10.23;5.10;;;23.20;28.70;;;;;;6242610;28;81522;-68
2021/03/13 00:19:44;;;;;;;9.68;5.78;;;23.10;28.80;;;;;;6241111;28;82500;-68
2021/03/13 00:22:44;;;;;;;9.43;5.03;;;23.20;28.90;;;;;;6223758;28;82102;-67
2021/03/13 00:25:45;;;;;;;11.63;5.97;;;23.20;29.00;;;;;;6230596;28;80308;-66
2021/03/13 00:28:45;;;;;;;9.63;5.68;;;23.20;28.80;;;;;;6239613;28;80690;-67
2021/03/13 00:31:46;;;;;;;10.18;5.90;;;23.20;28.40;;;;;;6232170;28;80457;-67
2021/03/13 00:34:46;;;;;;;9.23;5.55;;;23.20;28.30;;;;;;6240958;28;81449;-68
2021/03/13 00:37:47;;;;;;;9.75;5.10;;;23.20;28.30;;;;;;6246016;28;81457;-71
2021/03/13 00:40:47;;;;;;;10.15;5.70;;;23.20;28.70;;;;;;6213213;28;83308;-69
2021/03/13 00:43:48;;;;;;;7.57;4.90;;;23.10;29.10;;;;;;6240963;28;83055;-71
2021/03/13 00:46:49;;;;;;;10.13;4.65;;;23.10;29.00;;;;;;6224369;28;86314;-68
2021/03/13 00:49:49;;;;;;;10.00;5.15;;;23.10;29.30;;;;;;6234019;28;81763;-68
2021/03/13 00:52:50;;;;;;;9.10;5.07;;;23.10;29.30;;;;;;6238725;27;80667;-67
2021/03/13 00:55:51;;;;;;;10.80;5.85;;;23.10;28.80;;;;;;6243275;28;80325;-67
2021/03/13 00:58:58;;;;;;;10.65;5.57;;;23.10;28.40;;;;;;6236740;28;83345;-67
2021/03/13 01:01:59;;;;;;;7.80;4.78;;;23.10;28.90;;;;;;6241977;28;82837;-68
2021/03/13 01:05:00;;;;;;;8.85;4.93;;;23.10;28.60;;;;;;6220436;28;81458;-68
2021/03/13 01:08:01;;;;;;;6.35;4.28;;;23.10;28.80;;;;;;6215665;28;81863;-70
2021/03/13 01:11:02;;;;;;;9.93;5.00;;;23.10;28.50;;;;;;6219869;28;83178;-69
2021/03/13 01:14:07;;;;;;;8.38;4.80;;;23.10;29.00;;;;;;6229319;28;83171;-68
2021/03/13 01:17:15;;;;;;;8.70;4.60;;;23.10;28.40;;;;;;6221214;28;82749;-69
2021/03/13 01:20:16;;;;;;;8.93;4.97;;;23.10;28.30;;;;;;6218191;28;82192;-70
2021/03/13 01:23:17;;;;;;;9.95;5.22;;;23.10;28.20;;;;;;6226477;28;83050;-69
2021/03/13 01:26:18;;;;;;;8.10;4.53;;;23.10;28.10;;;;;;6230869;28;82766;-68
2021/03/13 01:29:20;;;;;;;9.25;4.53;;;23.10;28.20;;;;;;6225881;28;83197;-67
2021/03/13 01:32:25;;;;;;;7.70;4.78;;;23.10;28.60;;;;;;6249458;28;80572;-69
2021/03/13 01:35:26;;;;;;;9.13;4.10;;;23.00;28.20;;;;;;6223044;28;83264;-70
2021/03/13 01:38:27;;;;;;;8.32;4.82;;;23.00;28.20;;;;;;6228529;28;83451;-69
2021/03/13 01:41:28;;;;;;;7.68;4.47;;;23.00;28.20;;;;;;6233995;28;81587;-69
2021/03/13 01:44:28;;;;;;;7.45;4.45;;;23.00;28.10;;;;;;6231128;28;83351;-69
2021/03/13 01:47:29;;;;;;;9.18;4.28;;;23.00;28.70;;;;;;6243698;28;80835;-69
2021/03/13 01:50:34;;;;;;;7.90;4.90;;;23.00;28.10;;;;;;6224735;28;81986;-68
2021/03/13 01:53:35;;;;;;;6.78;4.38;;;23.00;28.60;;;;;;6235544;27;82675;-68
2021/03/13 01:56:36;;;;;;;7.57;4.82;;;23.00;28.10;;;;;;6239418;28;82758;-67
2021/03/13 01:59:37;;;;;;;7.45;4.18;;;23.00;28.10;;;;;;6229929;28;83504;-68
2021/03/13 02:02:39;;;;;;;7.00;4.03;;;23.00;28.00;;;;;;6222770;28;81754;-68
2021/03/13 02:05:39;;;;;;;6.90;4.00;;;23.00;27.90;;;;;;6223877;28;83382;-68
2021/03/13 02:08:40;;;;;;;7.78;4.43;;;23.00;28.00;;;;;;6225540;28;81281;-69
2021/03/13 02:11:41;;;;;;;6.63;4.03;;;23.00;27.90;;;;;;6216059;28;83199;-67
2021/03/13 02:14:42;;;;;;;9.40;4.57;;;23.00;28.00;;;;;;6243686;28;80676;-68
2021/03/13 02:17:46;;;;;;;6.82;3.92;;;22.90;28.20;;;;;;6219118;28;83596;-68
2021/03/13 02:20:47;;;;;;;6.22;3.88;;;22.90;28.10;;;;;;6232193;28;82826;-69
2021/03/13 02:23:50;;;;;;;6.45;3.85;;;23.00;28.20;;;;;;6228115;28;83256;-68
2021/03/13 02:26:54;;;;;;;8.20;4.43;;;22.90;28.00;;;;;;6237195;28;83046;-68
2021/03/13 02:30:13;;;;;;;7.78;4.13;;;23.00;28.00;;;;;;6218875;28;83077;-68
2021/03/13 02:33:37;;;;;;;6.05;3.38;;;23.00;28.10;;;;;;6229592;28;84664;-68
2021/03/13 02:36:45;;;;;;;7.68;3.28;;;22.90;27.90;;;;;;6233539;28;83693;-68
2021/03/13 02:39:46;;;;;;;6.32;4.15;;;23.00;28.00;;;;;;6228361;28;82931;-68
2021/03/13 02:42:48;;;;;;;6.45;3.90;;;23.00;28.50;;;;;;6229317;28;83619;-67
2021/03/13 02:45:49;;;;;;;5.30;3.42;;;22.90;28.60;;;;;;6225735;28;80918;-68
2021/03/13 02:48:50;;;;;;;5.68;3.38;;;22.90;28.20;;;;;;6219476;27;83893;-67
2021/03/13 02:51:51;;;;;;;7.93;3.97;;;22.90;27.90;;;;;;6222324;28;84454;-68
2021/03/13 02:54:52;;;;;;;6.68;3.35;;;23.00;27.90;;;;;;6238783;28;80445;-67
2021/03/13 02:57:54;;;;;;;6.93;3.00;;;22.90;27.80;;;;;;6225071;28;83301;-68
2021/03/13 03:00:55;;;;;;;5.80;3.42;;;23.00;28.30;;;;;;6223870;28;83336;-67
2021/03/13 03:03:57;;;;;;;5.70;3.35;;;22.90;27.70;;;;;;6224561;28;82854;-68
2021/03/13 03:07:01;;;;;;;6.38;3.47;;;22.90;27.90;;;;;;6225391;28;82083;-68
2021/03/13 03:10:02;;;;;;;4.22;3.13;;;22.90;28.00;;;;;;6247216;27;83404;-69
2021/03/13 03:13:03;;;;;;;4.22;2.88;;;22.90;27.80;;;;;;6223781;28;82859;-68
2021/03/13 03:16:04;;;;;;;5.00;3.33;;;22.90;28.10;;;;;;6228641;28;82873;-68
2021/03/13 03:19:05;;;;;;;4.78;3.10;;;22.90;28.00;;;;;;6222968;28;82341;-68
2021/03/13 03:22:10;;;;;;;3.80;2.67;;;22.90;28.50;;;;;;6233758;27;82421;-68
2021/03/13 03:25:12;;;;;;;6.55;3.40;;;22.90;27.90;;;;;;6249070;28;81454;-68
2021/03/13 03:28:15;;;;;;;3.47;2.67;;;22.90;28.30;;;;;;6225281;28;83060;-68
2021/03/13 03:31:22;;;;;;;5.03;2.83;;;22.90;28.10;;;;;;6240809;27;81758;-68
2021/03/13 03:34:23;;;;;;;5.45;2.70;;;22.90;28.30;;;;;;6231993;28;83394;-68
2021/03/13 03:37:28;;;;;;;4.80;2.50;;;22.90;28.10;;;;;;6223647;28;82178;-68
2021/03/13 03:40:28;;;;;;;5.68;3.05;;;22.80;28.00;;;;;;6226000;28;82735;-68
2021/03/13 03:43:29;;;;;;;6.70;3.05;;;22.90;28.00;;;;;;6224683;28;83444;-69
2021/03/13 03:46:32;;;;;;;3.95;2.78;;;22.80;28.60;;;;;;6224226;28;82797;-68
2021/03/13 03:49:33;;;;;;;6.03;2.95;;;22.80;28.30;;;;;;6250879;28;83296;-69
2021/03/13 03:52:45;;;;;;;5.47;2.83;;;22.80;28.20;;;;;;6257031;27;83311;-70
2021/03/13 03:55:46;;;;;;;4.15;2.72;;;22.90;28.20;;;;;;6222792;28;82822;-70
2021/03/13 03:58:46;;;;;;;6.35;2.63;;;22.90;28.30;;;;;;6241063;28;80610;-71
2021/03/13 04:01:47;;;;;;;5.18;2.88;;;22.90;28.30;;;;;;6239774;27;81766;-70
2021/03/13 04:04:47;;;;;;;5.15;2.95;;;22.90;29.00;;;;;;6240567;28;80677;-70
2021/03/13 04:07:48;;;;;;;4.18;2.70;;;22.90;28.60;;;;;;6240849;27;82743;-70
2021/03/13 04:10:48;;;;;;;3.97;2.53;;;22.90;28.70;;;;;;6239632;28;80809;-70
2021/03/13 04:13:49;;;;;;;5.32;2.70;;;22.80;28.90;;;;;;6241104;28;80884;-70
2021/03/13 04:16:49;;;;;;;3.58;2.42;;;22.80;29.00;;;;;;6245328;28;80800;-69
2021/03/13 04:19:50;;;;;;;4.25;2.60;;;22.80;28.80;;;;;;6242914;28;80677;-71
2021/03/13 04:22:50;;;;;;;7.22;2.78;;;22.80;28.90;;;;;;6241843;28;81048;-70
2021/03/13 04:25:51;;;;;;;8.48;2.63;;;22.90;28.90;;;;;;6237393;28;81037;-70
2021/03/13 04:28:51;;;;;;;4.90;2.50;;;22.80;29.30;;;;;;6232022;28;81672;-70
2021/03/13 04:31:52;;;;;;;4.25;2.10;;;22.80;29.20;;;;;;6222849;28;80957;-70
2021/03/13 04:34:52;;;;;;;3.20;2.20;;;22.80;29.20;;;;;;6234857;28;80641;-69
2021/03/13 04:37:53;;;;;;;2.40;2.08;;;22.80;29.10;;;;;;6237269;28;81462;-68
2021/03/13 04:40:54;;;;;;;4.32;2.10;;;22.90;29.30;;;;;;6248038;28;80446;-69
2021/03/13 04:43:54;;;;;;;3.55;2.20;;;22.90;29.40;;;;;;6237260;28;81033;-68
2021/03/13 04:46:55;;;;;;;3.28;1.90;;;22.90;29.40;;;;;;6236567;28;80612;-68
2021/03/13 04:49:55;;;;;;;3.10;2.00;;;22.80;29.50;;;;;;6244639;28;80426;-69
2021/03/13 04:52:56;;;;;;;4.97;2.50;;;22.80;29.60;;;;;;6242407;28;80375;-68
2021/03/13 04:55:56;;;;;;;2.65;1.67;;;22.90;29.70;;;;;;6238892;28;80769;-68
2021/03/13 04:58:57;;;;;;;3.35;2.42;;;23.00;30.00;;;;;;6245549;27;80414;-70
2021/03/13 05:01:59;;;;;;;3.67;2.20;;;23.00;29.80;;;;;;6238249;28;80454;-70
2021/03/13 05:04:59;;;;;;;4.57;2.30;;;23.00;29.80;;;;;;6240525;28;81770;-70
2021/03/13 05:08:00;;;;;;;4.03;2.42;;;23.00;29.00;;;;;;6247875;28;81022;-70
2021/03/13 05:11:00;;;;;;;3.97;2.40;;;23.00;28.40;;;;;;6237921;28;80470;-71
2021/03/13 05:14:01;;;;;;;3.33;1.95;;;23.10;28.40;;;;;;6243034;28;81993;-70
2021/03/13 05:17:02;;;;;;;4.60;2.50;;;23.00;28.60;;;;;;6240971;28;81383;-70
2021/03/13 05:20:02;;;;;;;4.03;2.25;;;23.10;28.30;;;;;;6238324;28;80522;-70
2021/03/13 05:23:03;;;;;;;5.05;2.25;;;23.10;28.20;;;;;;6247808;28;80749;-70
2021/03/13 05:26:03;;;;;;;7.00;2.30;;;23.10;28.10;;;;;;6233656;27;80163;-70
2021/03/13 05:29:04;;;;;;;4.03;2.10;;;23.10;28.00;;;;;;6237472;28;80968;-70
2021/03/13 05:32:04;;;;;;;5.15;2.33;;;23.20;27.90;;;;;;6238029;28;80751;-70
2021/03/13 05:35:05;;;;;;;4.88;2.28;;;23.20;27.90;;;;;;6234635;28;86426;-69
2021/03/13 05:38:06;;;;;;;4.55;2.50;;;23.20;28.10;;;;;;6227624;28;83658;-69
2021/03/13 05:41:06;;;;;;;3.72;1.92;;;23.20;27.90;;;;;;6247464;28;80824;-69
2021/03/13 05:44:07;;;;;;;15.13;2.25;;;23.20;27.80;;;;;;6243934;27;82405;-73
2021/03/13 05:47:07;;;;;;;4.40;2.45;;;23.20;27.60;;;;;;6246366;28;81290;-73
2021/03/13 05:50:08;;;;;;;2.83;2.10;;;23.20;27.90;;;;;;6240884;28;80444;-73
2021/03/13 05:53:08;;;;;;;4.90;2.22;;;23.20;27.70;;;;;;6224099;28;83521;-73
2021/03/13 05:56:09;;;;;;;3.90;1.90;;;23.30;28.00;;;;;;6248431;27;81271;-73
2021/03/13 05:59:10;;;;;;;2.60;1.80;;;23.30;28.10;;;;;;6238364;28;81143;-71
2021/03/13 06:02:10;;;;;;;5.82;2.35;;;23.30;28.10;;;;;;6233582;28;80374;-74
2021/03/13 06:05:11;;;;;;;7.40;2.45;;;23.30;29.60;;;;;;6242438;28;80895;-75
2021/03/13 06:08:11;;;;;;;3.67;2.63;;;23.30;30.00;;;;;;6249159;28;81613;-76
2021/03/13 06:11:12;;;;;;;3.55;1.98;;;23.30;29.10;;;;;;6224116;28;81543;-76
2021/03/13 06:14:12;;;;;;;5.28;2.50;;;23.30;28.80;;;;;;6238131;28;81444;-72
2021/03/13 06:17:13;;;;;;;7.32;2.83;;;23.40;29.20;;;;;;6237479;28;80255;-73
2021/03/13 06:20:13;;;;;;;3.70;2.10;;;23.40;29.30;;;;;;6237934;28;80673;-77
2021/03/13 06:23:14;;;;;;;6.97;2.80;;;23.40;29.20;;;;;;6217950;28;82853;-74
2021/03/13 06:26:14;;;;;;;3.00;2.22;;;23.40;29.50;;;;;;6234617;28;80313;-73
2021/03/13 06:29:15;;;;;;;6.90;2.38;;;23.50;29.80;;;;;;6233670;28;80739;-72
2021/03/13 06:32:15;;;;;;;3.22;2.17;;;23.50;29.80;;;;;;6224593;28;81104;-71
2021/03/13 06:35:16;;;;;;;6.13;2.80;;;23.50;30.00;;;;;;6239578;28;80573;-74
2021/03/13 06:38:18;;;;;;;8.10;2.80;;;23.50;30.00;;;;;;6229054;28;81328;-72
2021/03/13 06:41:18;;;;;;;9.15;2.97;;;23.50;30.00;;;;;;6236087;28;80483;-71
2021/03/13 06:44:19;;;;;;;4.47;2.40;;;23.60;29.90;;;;;;6248400;27;80609;-75
2021/03/13 06:47:19;;;;;;;5.90;2.90;;;23.60;30.10;;;;;;6240761;28;80792;-75
2021/03/13 06:50:20;;;;;;;5.22;2.75;;;23.60;30.00;;;;;;6246057;28;80645;-74
2021/03/13 06:53:21;;;;;;;6.75;2.50;;;23.60;30.00;;;;;;6239016;27;80294;-77
2021/03/13 06:56:21;;;;;;;3.92;2.30;;;23.60;29.90;;;;;;6236869;27;81586;-73
2021/03/13 06:59:22;;;;;;;3.97;2.53;;;23.60;29.70;;;;;;6241243;28;80865;-76
2021/03/13 07:02:23;;;;;;;6.47;3.38;;;23.60;29.60;;;;;;6239125;28;80472;-75
2021/03/13 07:05:23;;;;;;;4.40;2.28;;;23.60;29.40;;;;;;6234881;28;81495;-74
2021/03/13 07:08:24;;;;;;;7.57;2.63;;;23.60;29.20;;;;;;6239400;28;80510;-77
2021/03/13 07:11:25;;;;;;;7.30;2.83;;;23.60;29.80;;;;;;6236440;28;81038;-76
2021/03/13 07:14:25;;;;;;;10.48;2.42;;;23.60;29.90;;;;;;6229032;28;80844;-72
2021/03/13 07:17:26;;;;;;;4.93;2.38;;;23.70;30.00;;;;;;6244054;28;80512;-73
2021/03/13 07:20:27;;;;;;;162.30;58.30;;;23.70;29.70;;;;;;6240658;27;81944;-75
2021/03/13 07:23:28;;;;;;;559.13;212.75;;;23.70;30.00;;;;;;6238696;28;83297;-73
2021/03/13 07:26:29;;;;;;;485.02;174.50;;;23.60;30.00;;;;;;6210213;28;85950;-72
2021/03/13 07:29:29;;;;;;;311.05;107.35;;;23.70;30.20;;;;;;6224417;28;85923;-75
2021/03/13 07:32:31;;;;;;;252.85;91.63;;;23.70;30.10;;;;;;6239940;27;87904;-79
2021/03/13 07:35:32;;;;;;;313.63;119.03;;;23.70;30.50;;;;;;6243558;28;86719;-76
2021/03/13 07:38:32;;;;;;;426.23;157.57;;;23.60;31.00;;;;;;6234833;27;86102;-73
2021/03/13 07:41:33;;;;;;;504.58;196.10;;;23.60;30.50;;;;;;6232547;27;86417;-76
2021/03/13 07:44:33;;;;;;;333.52;125.05;;;23.70;30.80;;;;;;6234616;28;87916;-73
2021/03/13 07:47:34;;;;;;;301.13;112.40;;;23.70;30.40;;;;;;6245194;28;85910;-76
2021/03/13 07:50:34;;;;;;;251.32;95.80;;;23.70;30.40;;;;;;6235747;27;86992;-73
2021/03/13 07:53:35;;;;;;;220.32;81.55;;;23.60;31.20;;;;;;6241099;28;86299;-70
2021/03/13 07:56:35;;;;;;;194.52;72.80;;;23.70;30.80;;;;;;6248241;28;83732;-72
2021/03/13 07:59:36;;;;;;;189.10;67.43;;;23.70;30.70;;;;;;6241529;28;83643;-70
2021/03/13 08:02:36;;;;;;;176.52;61.95;;;23.70;31.20;;;;;;6232760;28;84464;-70
2021/03/13 08:05:37;;;;;;;141.70;54.88;;;23.60;30.40;;;;;;6237942;28;83515;-72
2021/03/13 08:08:38;;;;;;;139.23;49.63;;;23.70;30.40;;;;;;6241845;28;83186;-70
2021/03/13 08:11:39;;;;;;;111.55;46.22;;;23.70;30.20;;;;;;6241795;28;84001;-72
2021/03/13 08:14:39;;;;;;;105.35;42.58;;;23.70;30.20;;;;;;6231233;28;84914;-73
2021/03/13 08:17:40;;;;;;;104.53;40.50;;;23.70;30.50;;;;;;6234924;28;83293;-72
2021/03/13 08:20:41;;;;;;;94.03;36.97;;;23.60;30.20;;;;;;6238024;27;84183;-73
2021/03/13 08:23:41;;;;;;;84.65;33.30;;;23.70;29.90;;;;;;6232115;28;84018;-72
2021/03/13 08:26:42;;;;;;;82.57;32.58;;;23.70;29.90;;;;;;6245429;28;83327;-71
2021/03/13 08:29:42;;;;;;;81.13;29.38;;;23.80;30.60;;;;;;6244904;28;83243;-70
2021/03/13 08:32:43;;;;;;;45.70;16.35;;;23.80;30.10;;;;;;6246993;28;89586;-69
2021/03/13 08:35:43;;;;;;;27.02;9.10;;;23.60;28.60;;;;;;6231632;28;86203;-69
2021/03/13 08:38:44;;;;;;;19.40;8.25;;;23.40;27.70;;;;;;6246669;28;82841;-70
2021/03/13 08:41:45;;;;;;;17.33;7.78;;;23.30;28.00;;;;;;6223012;27;80898;-69
2021/03/13 08:44:45;;;;;;;18.30;7.78;;;23.30;28.50;;;;;;6247100;28;81577;-72
2021/03/13 08:47:48;;;;;;;21.63;6.60;;;23.30;29.30;;;;;;6246533;27;80566;-70
2021/03/13 08:50:49;;;;;;;13.88;5.72;;;23.40;28.90;;;;;;6238531;28;86127;-72
2021/03/13 08:53:49;;;;;;;10.95;4.50;;;23.40;29.10;;;;;;6236837;28;80812;-71
2021/03/13 08:56:50;;;;;;;8.63;4.50;;;23.50;28.90;;;;;;6248809;27;81273;-71
2021/03/13 08:59:50;;;;;;;6.85;4.18;;;23.50;28.60;;;;;;6239246;28;81414;-73
2021/03/13 09:02:51;;;;;;;7.40;4.03;;;23.60;28.50;;;;;;6241639;28;81012;-73
2021/03/13 09:05:52;;;;;;;8.98;3.88;;;23.60;28.40;;;;;;6241007;28;82269;-72
2021/03/13 09:08:52;;;;;;;6.32;3.35;;;23.60;28.60;;;;;;6232271;27;80703;-70
2021/03/13 09:11:53;;;;;;;6.70;3.15;;;23.60;29.10;;;;;;6216287;28;80645;-69
2021/03/13 09:14:53;;;;;;;8.18;3.30;;;23.70;28.30;;;;;;6242642;28;81636;-71
2021/03/13 09:17:54;;;;;;;9.63;4.82;;;23.60;28.20;;;;;;6243345;28;80212;-69
2021/03/13 09:20:55;;;;;;;11.10;3.80;;;23.50;27.20;;;;;;6239630;28;80970;-71
2021/03/13 09:23:55;;;;;;;10.52;3.22;;;23.40;27.00;;;;;;6240759;28;81008;-70
2021/03/13 09:26:56;;;;;;;4.82;2.17;;;23.30;26.80;;;;;;6224238;28;81200;-71
2021/03/13 09:29:57;;;;;;;4.80;2.55;;;23.20;26.80;;;;;;6244065;28;83045;-71
2021/03/13 09:32:57;;;;;;;5.35;2.20;;;23.10;26.50;;;;;;6240884;27;80612;-70
2021/03/13 09:35:58;;;;;;;6.50;2.85;;;23.10;27.40;;;;;;6246778;28;81397;-71
2021/03/13 09:38:58;;;;;;;4.60;2.83;;;23.10;27.40;;;;;;6243765;28;80246;-73
2021/03/13 09:41:59;;;;;;;5.45;2.22;;;23.00;26.80;;;;;;6244755;28;80493;-72
2021/03/13 09:44:59;;;;;;;5.80;2.53;;;23.00;27.20;;;;;;6229149;28;81711;-72
2021/03/13 09:48:00;;;;;;;3.45;2.08;;;23.10;28.00;;;;;;6248999;28;80757;-73
2021/03/13 09:51:00;;;;;;;6.68;3.05;;;23.10;27.90;;;;;;6243554;28;81522;-72
2021/03/13 09:54:01;;;;;;;7.28;3.00;;;23.20;27.80;;;;;;6234064;28;81703;-70
2021/03/13 09:57:01;;;;;;;4.05;2.38;;;23.20;27.90;;;;;;6246352;28;81221;-71
2021/03/13 10:00:02;;;;;;;3.72;2.58;;;23.20;27.50;;;;;;6238265;27;81482;-70
2021/03/13 10:03:05;;;;;;;3.85;2.42;;;23.20;27.50;;;;;;6229762;28;80125;-72
2021/03/13 10:06:06;;;;;;;4.20;2.15;;;23.20;26.90;;;;;;6234262;28;81320;-70
2021/03/13 10:09:06;;;;;;;4.47;2.60;;;23.30;27.70;;;;;;6231789;28;80788;-70
2021/03/13 10:12:07;;;;;;;5.47;2.17;;;23.30;27.50;;;;;;6250495;28;81485;-71
2021/03/13 10:15:07;;;;;;;5.13;2.15;;;23.20;27.50;;;;;;6248758;28;80596;-72
2021/03/13 10:18:08;;;;;;;5.85;2.28;;;23.20;27.50;;;;;;6247177;28;82824;-68
2021/03/13 10:21:08;;;;;;;4.38;2.50;;;23.20;27.80;;;;;;6219857;27;81293;-68
2021/03/13 10:24:09;;;;;;;4.55;2.17;;;23.30;28.00;;;;;;6227023;28;83267;-70
2021/03/13 10:27:09;;;;;;;4.55;2.00;;;23.30;28.00;;;;;;6243367;28;80275;-68
2021/03/13 10:30:10;;;;;;;4.22;1.85;;;23.30;28.10;;;;;;6243987;28;81242;-66
2021/03/13 10:33:10;;;;;;;3.70;2.10;;;23.40;28.30;;;;;;6240542;28;80539;-66
2021/03/13 10:36:11;;;;;;;3.22;2.03;;;23.40;29.10;;;;;;6246294;28;80532;-67
2021/03/13 10:39:12;;;;;;;4.07;2.13;;;23.40;28.70;;;;;;6237184;28;81888;-67
2021/03/13 10:42:12;;;;;;;4.10;1.63;;;23.40;28.50;;;;;;6244971;28;80612;-66
2021/03/13 10:45:13;;;;;;;3.35;2.38;;;23.40;29.10;;;;;;6239994;27;81443;-66
2021/03/13 10:48:13;;;;;;;3.13;2.05;;;23.40;28.80;;;;;;6226221;28;80518;-69
2021/03/13 10:51:14;;;;;;;3.83;2.35;;;23.40;28.60;;;;;;6229294;28;85856;-71
2021/03/13 10:54:14;;;;;;;3.63;1.88;;;23.30;28.00;;;;;;6221131;27;80566;-69
2021/03/13 10:57:15;;;;;;;6.35;2.13;;;23.30;28.00;;;;;;6244071;28;81194;-70
2021/03/13 11:00:15;;;;;;;4.32;2.55;;;23.30;28.50;;;;;;6229312;28;80704;-68
2021/03/13 11:03:16;;;;;;;3.35;2.13;;;23.30;28.20;;;;;;6242499;28;83442;-68
2021/03/13 11:06:16;;;;;;;5.75;1.90;;;23.30;28.10;;;;;;6242985;28;85106;-70
2021/03/13 11:09:17;;;;;;;2.90;1.90;;;23.40;28.50;;;;;;6226938;28;80994;-68
2021/03/13 11:12:17;;;;;;;6.35;2.75;;;23.40;28.90;;;;;;6241851;28;80527;-67
2021/03/13 11:15:18;;;;;;;6.70;2.53;;;23.40;27.90;;;;;;6245855;28;81827;-68
2021/03/13 11:18:18;;;;;;;5.82;2.33;;;23.40;28.10;;;;;;6242355;28;80814;-69
2021/03/13 11:21:19;;;;;;;2.67;1.70;;;23.30;27.30;;;;;;6242273;28;80901;-68
2021/03/13 11:24:20;;;;;;;12.32;2.25;;;23.40;28.20;;;;;;6248010;28;80436;-69
2021/03/13 11:27:20;;;;;;;2.55;1.70;;;23.40;27.80;;;;;;6218963;28;80720;-71
2021/03/13 11:30:21;;;;;;;4.80;2.28;;;23.40;27.00;;;;;;6250626;28;80711;-70
2021/03/13 11:33:21;;;;;;;3.90;1.75;;;23.30;27.10;;;;;;6248110;27;81213;-71
2021/03/13 11:36:22;;;;;;;5.38;2.42;;;23.40;26.90;;;;;;6245569;28;80714;-68
2021/03/13 11:39:22;;;;;;;8.60;2.13;;;23.30;26.40;;;;;;6247545;28;80741;-70
2021/03/13 11:42:27;;;;;;;3.60;2.00;;;23.20;26.80;;;;;;6251851;28;82463;-69
2021/03/13 11:45:28;;;;;;;2.72;1.73;;;23.20;26.80;;;;;;6240273;28;80740;-72
2021/03/13 11:48:29;;;;;;;5.63;2.30;;;23.20;26.90;;;;;;6232584;28;80625;-69
2021/03/13 11:51:29;;;;;;;5.13;1.77;;;23.20;26.90;;;;;;6241626;28;80433;-72
2021/03/13 11:54:30;;;;;;;2.45;1.65;;;23.20;26.70;;;;;;6251249;28;80587;-71
2021/03/13 11:57:30;;;;;;;3.78;1.75;;;23.20;26.70;;;;;;6245977;27;80413;-70
2021/03/13 12:00:31;;;;;;;5.10;2.38;;;23.30;26.80;;;;;;6236273;27;80510;-68
2021/03/13 12:03:31;;;;;;;4.10;1.77;;;23.30;26.60;;;;;;6233961;28;80504;-69
2021/03/13 12:06:32;;;;;;;2.65;1.95;;;23.20;26.10;;;;;;6238341;28;80713;-70
2021/03/13 12:09:32;;;;;;;6.40;3.25;;;23.00;25.80;;;;;;6235914;28;80909;-68
2021/03/13 12:12:33;;;;;;;5.03;2.97;;;22.80;26.00;;;;;;6237486;28;80762;-67
2021/03/13 12:15:33;;;;;;;4.10;2.17;;;22.60;26.20;;;;;;6242658;28;80689;-67
2021/03/13 12:18:34;;;;;;;4.25;1.83;;;22.50;26.20;;;;;;6249745;28;80779;-66
2021/03/13 12:21:34;;;;;;;2.70;1.83;;;22.30;26.20;;;;;;6243419;27;81688;-66
2021/03/13 12:24:35;;;;;;;6.13;2.10;;;22.20;26.40;;;;;;6237299;28;80146;-68
2021/03/13 12:27:39;;;;;;;3.17;1.80;;;22.00;26.10;;;;;;6246352;27;82108;-67
2021/03/13 12:30:40;;;;;;;2.53;1.50;;;21.30;26.30;;;;;;6244020;27;86948;-67
2021/03/13 12:33:40;;;;;;;3.80;1.80;;;21.20;27.10;;;;;;6243713;27;81474;-66
2021/03/13 12:36:41;;;;;;;5.22;2.63;;;21.40;26.70;;;;;;6241785;27;80462;-65
2021/03/13 12:39:41;;;;;;;2.08;1.33;;;21.50;26.40;;;;;;6241626;27;81631;-65
2021/03/13 12:42:42;;;;;;;8.85;2.00;;;21.60;27.00;;;;;;6240436;27;80577;-65
2021/03/13 12:45:42;;;;;;;5.32;2.75;;;21.80;26.60;;;;;;6248058;27;80842;-66
2021/03/13 12:48:43;;;;;;;3.75;2.08;;;22.00;26.50;;;;;;6249950;27;83482;-65
2021/03/13 12:51:43;;;;;;;2.63;1.70;;;22.10;26.80;;;;;;6244923;27;83470;-65
2021/03/13 12:54:44;;;;;;;6.07;1.80;;;22.20;26.90;;;;;;6176716;27;86349;-65
2021/03/13 12:57:45;;;;;;;3.47;1.85;;;22.30;26.30;;;;;;6173209;28;81392;-66
2021/03/13 13:00:46;;;;;;;3.08;1.67;;;22.30;26.00;;;;;;6245281;27;81572;-66
2021/03/13 13:03:46;;;;;;;6.72;3.38;;;22.30;26.40;;;;;;6241665;27;80811;-66
2021/03/13 13:06:47;;;;;;;3.40;1.75;;;22.30;26.70;;;;;;6219658;27;81163;-66
2021/03/13 13:09:48;;;;;;;2.88;1.88;;;22.30;26.80;;;;;;6250081;27;80756;-66
2021/03/13 13:12:48;;;;;;;2.55;1.70;;;22.40;26.50;;;;;;6236269;28;80996;-67
2021/03/13 13:15:51;;;;;;;4.05;1.58;;;22.30;25.80;;;;;;6247374;27;80657;-67
2021/03/13 13:18:51;;;;;;;3.58;1.52;;;22.40;27.00;;;;;;6238024;27;85957;-67
2021/03/13 13:21:52;;;;;;;4.88;1.95;;;22.50;26.70;;;;;;6238107;28;81002;-67
2021/03/13 13:24:53;;;;;;;2.55;1.63;;;22.60;26.50;;;;;;6243758;27;81875;-68
2021/03/13 13:27:53;;;;;;;3.22;2.00;;;22.70;26.70;;;;;;6241453;27;80729;-68
2021/03/13 13:30:54;;;;;;;1.98;1.48;;;22.80;27.00;;;;;;6240744;27;80571;-68
2021/03/13 13:33:54;;;;;;;2.28;1.65;;;22.90;27.10;;;;;;6247993;27;81223;-68
2021/03/13 13:36:55;;;;;;;3.72;1.90;;;23.00;27.50;;;;;;6247841;27;81374;-68
2021/03/13 13:39:55;;;;;;;4.20;1.80;;;23.00;27.10;;;;;;6249350;27;82279;-66
2021/03/13 13:42:56;;;;;;;1.83;1.50;;;23.10;27.40;;;;;;6239556;27;80605;-65
2021/03/13 13:45:57;;;;;;;2.80;1.60;;;23.10;27.60;;;;;;6211777;27;80779;-66
2021/03/13 13:48:57;;;;;;;3.17;1.90;;;23.10;27.50;;;;;;6225195;27;81710;-65
2021/03/13 13:51:58;;;;;;;3.65;1.95;;;23.10;27.30;;;;;;6246771;27;80944;-64
2021/03/13 13:54:58;;;;;;;2.17;1.58;;;23.10;27.50;;;;;;6236329;27;80880;-66
2021/03/13 13:57:59;;;;;;;5.97;2.10;;;23.20;27.40;;;;;;6229487;28;80840;-67
2021/03/13 14:00:59;;;;;;;2.70;2.00;;;23.30;28.00;;;;;;6243937;27;83379;-67
2021/03/13 14:04:00;;;;;;;5.53;2.15;;;23.20;27.90;;;;;;6247215;27;80577;-67
2021/03/13 14:07:00;;;;;;;1.83;1.60;;;23.30;28.00;;;;;;6218786;27;80864;-68
2021/03/13 14:10:01;;;;;;;6.38;2.45;;;23.30;27.90;;;;;;6238377;27;83396;-69
2021/03/13 14:13:02;;;;;;;3.40;2.33;;;23.30;27.90;;;;;;6246413;27;80991;-68
2021/03/13 14:16:02;;;;;;;2.35;1.65;;;23.30;27.90;;;;;;6241406;27;81734;-67
2021/03/13 14:19:03;;;;;;;3.13;1.50;;;23.30;27.80;;;;;;6243209;27;80862;-68
2021/03/13 14:22:03;;;;;;;2.42;1.58;;;23.30;27.80;;;;;;6209134;27;81509;-69
2021/03/13 14:25:04;;;;;;;2.75;2.10;;;23.40;28.00;;;;;;6245418;27;81038;-69
2021/03/13 14:28:04;;;;;;;2.03;1.73;;;23.40;28.50;;;;;;6245456;27;81962;-68
2021/03/13 14:31:05;;;;;;;2.38;1.90;;;23.40;28.40;;;;;;6228500;27;81078;-68
2021/03/13 14:34:05;;;;;;;4.03;2.30;;;23.40;28.50;;;;;;6247488;27;81488;-70
2021/03/13 14:37:06;;;;;;;2.50;1.90;;;23.40;28.80;;;;;;6241136;28;81209;-68
2021/03/13 14:40:07;;;;;;;3.38;1.67;;;23.40;28.60;;;;;;6236550;28;80752;-69
2021/03/13 14:43:07;;;;;;;3.97;1.52;;;23.50;28.80;;;;;;6239979;28;80510;-69
2021/03/13 14:46:08;;;;;;;2.33;1.80;;;23.50;28.90;;;;;;6233648;28;83141;-71
2021/03/13 14:49:08;;;;;;;3.75;1.90;;;23.50;28.90;;;;;;6237818;27;80956;-68
2021/03/13 14:52:11;;;;;;;3.60;1.70;;;23.50;29.20;;;;;;6243672;28;81359;-69
2021/03/13 14:55:11;;;;;;;2.65;2.03;;;23.50;28.90;;;;;;6238582;28;80629;-68
2021/03/13 14:58:12;;;;;;;3.45;1.77;;;23.50;29.60;;;;;;6237044;28;80791;-69
2021/03/13 15:01:12;;;;;;;4.53;1.65;;;23.50;29.40;;;;;;6230401;27;82036;-68
2021/03/13 15:04:13;;;;;;;16.65;4.55;;;23.50;29.30;;;;;;6241907;28;80668;-69
2021/03/13 15:07:14;;;;;;;27.30;8.30;;;23.50;29.80;;;;;;6213600;28;84685;-67
2021/03/13 15:10:14;;;;;;;19.08;4.60;;;23.50;29.70;;;;;;6243600;28;81630;-68
2021/03/13 15:13:15;;;;;;;19.85;5.35;;;23.50;29.50;;;;;;6242626;28;81713;-67
2021/03/13 15:16:16;;;;;;;22.77;5.32;;;23.50;29.60;;;;;;6244897;28;80623;-67
2021/03/13 15:19:16;;;;;;;20.30;4.90;;;23.50;29.60;;;;;;6242819;28;81653;-65
2021/03/13 15:22:17;;;;;;;18.67;4.70;;;23.60;29.90;;;;;;6243458;28;81142;-65
2021/03/13 15:25:18;;;;;;;18.10;5.00;;;23.50;28.80;;;;;;6233646;28;80770;-67
2021/03/13 15:28:18;;;;;;;14.48;4.45;;;23.50;29.20;;;;;;6242549;27;80608;-66
2021/03/13 15:31:19;;;;;;;11.88;3.75;;;23.40;28.90;;;;;;6241893;28;81878;-67
2021/03/13 15:34:20;;;;;;;10.27;4.53;;;23.40;29.20;;;;;;6240367;28;81564;-67
2021/03/13 15:37:21;;;;;;;11.20;3.80;;;23.40;28.80;;;;;;6242327;27;80827;-69